Time;durP1;ratioP1;P1;durP2;ratioP2;P2;SDS_P1;SDS_P2;PMS_P1;PMS_P2;Temp;Humidity;BMP_temperature;BMP_pressure;BME280_temperature;BME280_humidity;BME280_pressure;Samples;Min_cycle;Max_cycle;Signal;HPM_P1;HPM_P2
2023/10/17 00:02:53;;;;;;;4.90;4.70;;;5.90;78.90;;;;;;6265048;28;20222;-77
2023/10/17 00:05:56;;;;;;;5.30;4.90;;;6.00;78.90;;;;;;6258201;28;20805;-84
2023/10/17 00:09:05;;;;;;;5.90;5.53;;;6.00;78.90;;;;;;6245233;28;20238;-83
2023/10/17 00:12:25;;;;;;;5.37;5.17;;;6.00;79.00;;;;;;6224468;28;20238;-84
2023/10/17 00:15:35;;;;;;;5.07;4.87;;;6.10;79.00;;;;;;6228316;28;20239;-82
2023/10/17 00:18:38;;;;;;;5.80;5.40;;;6.10;79.00;;;;;;6228783;28;20243;-81
2023/10/17 00:21:42;;;;;;;5.47;5.27;;;6.10;79.00;;;;;;6229168;28;20265;-83
2023/10/17 00:24:46;;;;;;;5.27;5.07;;;6.20;79.10;;;;;;6226081;28;20235;-79
2023/10/17 00:27:51;;;;;;;4.97;4.77;;;6.20;79.00;;;;;;6222963;28;20269;-82
2023/10/17 00:30:56;;;;;;;5.53;5.33;;;6.30;79.10;;;;;;6224819;28;20236;-83
2023/10/17 00:34:00;;;;;;;5.67;5.27;;;6.30;79.10;;;;;;6238494;28;20722;-84
2023/10/17 00:37:06;;;;;;;5.70;5.40;;;6.30;79.10;;;;;;6229204;28;20235;-84
2023/10/17 00:40:34;;;;;;;5.60;5.27;;;6.40;79.10;;;;;;6232718;28;20687;-81
2023/10/17 00:43:35;;;;;;;6.53;6.00;;;6.40;79.10;;;;;;6241247;28;20246;-83
2023/10/17 00:46:41;;;;;;;6.00;5.70;;;6.40;79.10;;;;;;6230114;28;20767;-83
2023/10/17 00:49:44;;;;;;;7.03;6.37;;;6.40;79.10;;;;;;6227892;28;20246;-84
2023/10/17 00:52:50;;;;;;;5.80;5.50;;;6.50;79.10;;;;;;6221798;28;20235;-83
2023/10/17 00:55:55;;;;;;;5.20;5.00;;;6.50;79.10;;;;;;6242708;28;20234;-84
2023/10/17 00:59:00;;;;;;;5.53;5.30;;;6.50;79.20;;;;;;6233794;28;20254;-82
2023/10/17 01:02:06;;;;;;;5.63;5.43;;;6.50;79.20;;;;;;6230199;28;20235;-80
2023/10/17 01:05:11;;;;;;;5.67;5.43;;;6.50;79.20;;;;;;6236423;28;20405;-82
2023/10/17 01:08:15;;;;;;;5.70;5.30;;;6.60;79.20;;;;;;6233992;28;20250;-83
2023/10/17 01:11:27;;;;;;;6.63;6.33;;;6.60;79.10;;;;;;6217208;28;20232;-82
2023/10/17 01:14:32;;;;;;;7.17;6.77;;;6.60;79.10;;;;;;6241094;28;20253;-80
2023/10/17 01:17:36;;;;;;;7.40;7.00;;;6.60;79.10;;;;;;6240534;28;20987;-81
2023/10/17 01:20:40;;;;;;;8.80;8.30;;;6.60;79.10;;;;;;6227179;28;20241;-82
2023/10/17 01:23:43;;;;;;;8.77;8.07;;;6.70;79.00;;;;;;6227637;28;20231;-82
2023/10/17 01:26:48;;;;;;;9.60;9.00;;;6.70;79.10;;;;;;6232416;28;20226;-78
2023/10/17 01:29:51;;;;;;;8.93;8.23;;;6.70;79.10;;;;;;6240133;28;20262;-81
2023/10/17 01:32:54;;;;;;;9.63;8.73;;;6.70;79.00;;;;;;6231845;28;20713;-80
2023/10/17 01:36:00;;;;;;;9.30;8.60;;;6.70;79.10;;;;;;6229536;28;20239;-83
2023/10/17 01:39:06;;;;;;;9.43;8.67;;;6.80;79.10;;;;;;6217693;28;20794;-81
2023/10/17 01:42:11;;;;;;;9.97;8.73;;;6.80;79.10;;;;;;6220238;28;20367;-80
2023/10/17 01:45:15;;;;;;;10.77;9.50;;;6.80;79.10;;;;;;6236019;28;20246;-82
2023/10/17 01:48:21;;;;;;;8.43;6.73;;;6.80;79.10;;;;;;6232638;28;20313;-83
2023/10/17 01:51:25;;;;;;;7.07;6.57;;;6.80;78.60;;;;;;6234747;28;20238;-82
2023/10/17 01:54:29;;;;;;;8.00;7.30;;;6.70;78.70;;;;;;6239007;28;20242;-85
2023/10/17 01:57:40;;;;;;;7.37;6.77;;;6.70;78.70;;;;;;6231455;28;20325;-79
2023/10/17 02:00:43;;;;;;;8.60;6.53;;;6.60;78.80;;;;;;6247946;28;20250;-81
2023/10/17 02:03:46;;;;;;;7.30;6.70;;;6.60;78.70;;;;;;6245929;28;20307;-86
2023/10/17 02:06:50;;;;;;;6.47;5.97;;;6.60;78.70;;;;;;6239855;28;20245;-82
2023/10/17 02:09:55;;;;;;;7.37;6.87;;;6.50;78.90;;;;;;6247668;28;20234;-80
2023/10/17 02:13:02;;;;;;;7.40;7.00;;;6.60;78.90;;;;;;6224617;28;20645;-82
2023/10/17 02:16:07;;;;;;;8.03;7.53;;;6.60;78.70;;;;;;6246262;28;20246;-83
2023/10/17 02:19:11;;;;;;;8.17;7.57;;;6.60;78.70;;;;;;6258254;28;20225;-81
2023/10/17 02:22:16;;;;;;;8.37;7.60;;;6.50;78.70;;;;;;6239646;28;20281;-83
2023/10/17 02:25:21;;;;;;;7.23;6.73;;;6.50;78.70;;;;;;6244133;28;20258;-84
2023/10/17 02:28:26;;;;;;;8.43;7.70;;;6.50;78.70;;;;;;6247819;28;20243;-81
2023/10/17 02:31:29;;;;;;;8.50;7.70;;;6.50;78.90;;;;;;6236860;28;20277;-79
2023/10/17 02:34:34;;;;;;;7.60;7.00;;;6.50;78.60;;;;;;6247764;28;20230;-84
2023/10/17 02:37:37;;;;;;;7.70;7.10;;;6.50;78.70;;;;;;6235047;28;20227;-79
2023/10/17 02:40:42;;;;;;;8.43;7.80;;;6.50;79.00;;;;;;6234103;28;20369;-82
2023/10/17 02:43:46;;;;;;;7.47;6.87;;;6.60;78.70;;;;;;6242068;28;20636;-82
2023/10/17 02:46:50;;;;;;;7.20;6.73;;;6.60;78.70;;;;;;6242704;28;20238;-81
2023/10/17 02:49:57;;;;;;;7.30;6.80;;;6.60;78.70;;;;;;6238293;28;20318;-82
2023/10/17 02:53:00;;;;;;;7.40;6.80;;;6.60;78.70;;;;;;6222041;28;20672;-80
2023/10/17 02:56:18;;;;;;;8.10;7.47;;;6.60;78.70;;;;;;6222837;28;20321;-82
2023/10/17 02:59:22;;;;;;;7.27;6.77;;;6.60;78.70;;;;;;6220514;28;20974;-85
2023/10/17 03:02:36;;;;;;;7.40;6.90;;;6.70;78.70;;;;;;6256175;28;20300;-82
2023/10/17 03:05:41;;;;;;;7.53;7.03;;;6.70;78.70;;;;;;6243603;28;20242;-81
2023/10/17 03:08:49;;;;;;;7.93;7.43;;;6.60;78.80;;;;;;6225761;28;20223;-84
2023/10/17 03:12:06;;;;;;;6.53;6.13;;;6.70;78.90;;;;;;6245562;28;20875;-82
2023/10/17 03:15:22;;;;;;;8.30;7.67;;;6.70;78.90;;;;;;6248773;28;20771;-81
2023/10/17 03:18:26;;;;;;;7.60;7.10;;;6.80;78.90;;;;;;6251001;28;20312;-80
2023/10/17 03:21:34;;;;;;;7.63;6.97;;;6.80;78.70;;;;;;6254973;28;20262;-81
2023/10/17 03:24:38;;;;;;;7.33;6.80;;;6.80;78.70;;;;;;6235119;28;20242;-82
2023/10/17 03:27:48;;;;;;;8.60;7.70;;;6.80;78.60;;;;;;6245472;28;20234;-82
2023/10/17 03:30:53;;;;;;;7.70;7.20;;;6.80;78.70;;;;;;6245996;28;20246;-82
2023/10/17 03:33:58;;;;;;;7.60;7.10;;;6.70;78.70;;;;;;6225214;28;20242;-83
2023/10/17 03:37:26;;;;;;;7.47;6.97;;;6.80;78.70;;;;;;6235950;28;20254;-83
2023/10/17 03:40:30;;;;;;;8.10;7.43;;;6.80;78.70;;;;;;6234348;28;20227;-85
2023/10/17 03:43:39;;;;;;;7.60;7.20;;;6.80;78.70;;;;;;6243754;28;20252;-84
2023/10/17 03:46:47;;;;;;;7.73;7.13;;;6.90;78.70;;;;;;6244839;28;20235;-82
2023/10/17 03:49:55;;;;;;;7.23;6.83;;;6.80;78.60;;;;;;6244748;28;20237;-82
2023/10/17 03:53:05;;;;;;;7.20;6.80;;;6.90;78.60;;;;;;6236337;28;20238;-82
2023/10/17 03:56:11;;;;;;;7.87;7.17;;;6.90;78.60;;;;;;6235749;28;20227;-82
2023/10/17 03:59:38;;;;;;;7.00;6.50;;;6.90;78.70;;;;;;6239825;28;20233;-79
2023/10/17 04:02:43;;;;;;;7.80;7.20;;;6.90;78.70;;;;;;6235986;28;20351;-82
2023/10/17 04:05:49;;;;;;;8.13;7.43;;;6.90;78.70;;;;;;6250444;28;20242;-82
2023/10/17 04:09:16;;;;;;;7.93;7.23;;;6.90;78.70;;;;;;6239927;28;20249;-83
2023/10/17 04:12:23;;;;;;;8.43;7.83;;;6.80;78.80;;;;;;6224095;28;20242;-81
2023/10/17 04:15:27;;;;;;;8.10;7.40;;;6.80;78.90;;;;;;6240569;28;20387;-81
2023/10/17 04:18:32;;;;;;;7.70;7.00;;;6.80;78.80;;;;;;6246053;28;20231;-81
2023/10/17 04:21:38;;;;;;;8.83;7.17;;;6.80;78.90;;;;;;6238331;28;20226;-82
2023/10/17 04:24:47;;;;;;;7.57;6.97;;;6.80;78.90;;;;;;6249812;28;20246;-82
2023/10/17 04:27:54;;;;;;;7.50;7.00;;;6.80;78.80;;;;;;6251371;28;20344;-81
2023/10/17 04:30:58;;;;;;;7.40;7.00;;;6.80;78.70;;;;;;6228379;28;20312;-81
2023/10/17 04:34:06;;;;;;;6.73;6.30;;;6.90;78.80;;;;;;6233723;28;20239;-81
2023/10/17 04:37:10;;;;;;;7.13;6.63;;;6.90;78.70;;;;;;6233023;28;20228;-82
2023/10/17 04:40:36;;;;;;;7.87;7.37;;;6.90;78.70;;;;;;6229638;28;20757;-80
2023/10/17 04:43:54;;;;;;;9.00;7.27;;;6.90;78.60;;;;;;6238997;28;20274;-82
2023/10/17 04:47:16;;;;;;;7.67;7.17;;;6.90;78.80;;;;;;6233206;28;20255;-81
2023/10/17 04:50:22;;;;;;;7.97;7.17;;;6.90;78.70;;;;;;6237221;28;20242;-82
2023/10/17 04:53:28;;;;;;;7.53;6.80;;;7.00;78.70;;;;;;6235210;28;20235;-81
2023/10/17 04:56:52;;;;;;;7.87;7.30;;;7.00;78.50;;;;;;6238760;28;20239;-82
2023/10/17 05:00:09;;;;;;;7.23;6.73;;;7.00;78.50;;;;;;6241929;28;20245;-84
2023/10/17 05:03:26;;;;;;;7.70;7.20;;;7.00;78.60;;;;;;6244541;28;20252;-83
2023/10/17 06:17:21;;;;;;;6.93;6.47;;;7.50;77.90;;;;;;6218602;28;20738;-81
2023/10/17 06:20:44;;;;;;;7.13;6.70;;;7.60;77.80;;;;;;6245123;28;20242;-81
2023/10/17 06:27:12;;;;;;;9.27;7.43;;;7.60;77.20;;;;;;6243692;28;20238;-82
2023/10/17 06:30:28;;;;;;;7.80;6.97;;;7.80;76.70;;;;;;6251579;28;20231;-81
2023/10/17 06:33:35;;;;;;;7.77;7.07;;;7.80;76.80;;;;;;6224595;28;20247;-82
2023/10/17 06:36:40;;;;;;;7.10;6.50;;;7.80;76.70;;;;;;6233617;28;20815;-80
2023/10/17 06:39:46;;;;;;;6.30;5.90;;;8.00;76.50;;;;;;6230932;28;20227;-81
2023/10/17 06:42:50;;;;;;;6.00;5.60;;;8.00;75.80;;;;;;6238198;28;20274;-80
2023/10/17 06:45:57;;;;;;;7.23;6.53;;;8.00;75.70;;;;;;6243662;28;20863;-82
2023/10/17 06:49:06;;;;;;;5.80;5.50;;;8.10;75.70;;;;;;6236446;28;20374;-82
2023/10/17 06:52:18;;;;;;;5.53;5.23;;;8.10;75.70;;;;;;6245603;28;20380;-80
2023/10/17 06:55:28;;;;;;;7.37;5.87;;;8.20;75.60;;;;;;6244925;28;20321;-81
2023/10/17 06:58:32;;;;;;;6.80;6.20;;;8.30;74.70;;;;;;6244925;28;20244;-81
2023/10/17 07:01:38;;;;;;;5.97;5.57;;;8.30;74.50;;;;;;6247252;28;20243;-81
2023/10/17 07:04:43;;;;;;;6.27;5.67;;;8.30;74.40;;;;;;6247301;28;20250;-79
2023/10/17 07:07:52;;;;;;;7.40;5.50;;;8.30;73.90;;;;;;6253265;28;20222;-79
2023/10/17 07:11:02;;;;;;;6.90;5.97;;;8.30;74.20;;;;;;6239913;28;20324;-82
2023/10/17 07:14:22;;;;;;;7.63;6.70;;;8.30;74.00;;;;;;6240966;28;20234;-80
2023/10/17 07:17:28;;;;;;;9.27;6.30;;;8.40;73.80;;;;;;6231292;28;20324;-80
2023/10/17 07:21:14;;;;;;;6.20;5.80;;;8.40;74.00;;;;;;6249274;28;20304;-81
2023/10/17 07:23:55;;;;;;;7.17;6.40;;;8.40;74.30;;;;;;6247011;28;20436;-81
2023/10/17 07:26:58;;;;;;;8.23;6.70;;;8.50;74.40;;;;;;6256707;28;20303;-80
2023/10/17 07:30:10;;;;;;;9.53;6.37;;;8.50;74.30;;;;;;6240610;28;20242;-81
2023/10/17 07:33:17;;;;;;;6.23;5.70;;;8.50;73.80;;;;;;6242511;28;20258;-80
2023/10/17 07:36:20;;;;;;;5.37;5.00;;;8.60;72.90;;;;;;6240564;28;20777;-79
2023/10/17 07:39:24;;;;;;;6.03;5.27;;;8.60;72.50;;;;;;6237981;28;20235;-80
2023/10/17 07:42:31;;;;;;;6.03;5.50;;;8.70;72.50;;;;;;6255922;28;20230;-79
2023/10/17 07:45:39;;;;;;;7.37;6.00;;;8.80;72.60;;;;;;6243806;28;20310;-79
2023/10/17 07:48:48;;;;;;;10.67;5.97;;;8.80;72.60;;;;;;6238228;28;20227;-79
2023/10/17 07:51:52;;;;;;;6.47;5.87;;;8.90;72.50;;;;;;6219971;28;20821;-81
2023/10/17 07:54:57;;;;;;;8.73;5.53;;;8.90;71.80;;;;;;6239931;28;20231;-80
2023/10/17 07:58:06;;;;;;;5.50;5.17;;;9.00;71.80;;;;;;6233835;28;20227;-79
2023/10/17 08:01:14;;;;;;;8.20;6.50;;;9.00;71.70;;;;;;6231540;28;20313;-81
2023/10/17 08:04:24;;;;;;;6.07;5.57;;;9.00;70.80;;;;;;6239279;28;20235;-80
2023/10/17 08:07:29;;;;;;;7.60;5.73;;;9.00;71.00;;;;;;6212369;28;20246;-81
2023/10/17 08:10:35;;;;;;;7.83;5.83;;;9.00;70.80;;;;;;6251671;28;20788;-82
2023/10/17 08:13:38;;;;;;;6.57;5.80;;;9.00;70.90;;;;;;6244836;28;20257;-81
2023/10/17 08:16:43;;;;;;;5.30;4.90;;;9.20;70.30;;;;;;6240483;28;20294;-81
2023/10/17 08:23:07;;;;;;;5.17;4.70;;;9.40;70.30;;;;;;6227555;28;20250;-81
2023/10/17 08:26:12;;;;;;;14.13;5.97;;;9.50;69.90;;;;;;6253193;28;20230;-82
2023/10/17 08:29:20;;;;;;;4.80;4.50;;;9.60;69.60;;;;;;6248698;28;20237;-83
2023/10/17 08:32:54;;;;;;;4.93;4.47;;;9.60;69.80;;;;;;6237473;28;20832;-80
2023/10/17 08:36:01;;;;;;;5.93;5.13;;;9.60;69.80;;;;;;6247745;28;20223;-84
2023/10/17 08:39:25;;;;;;;5.80;5.30;;;9.70;69.60;;;;;;6233802;28;20235;-78
2023/10/17 08:42:31;;;;;;;8.10;5.30;;;9.70;68.70;;;;;;6218342;28;20250;-77
2023/10/17 08:45:37;;;;;;;12.17;4.97;;;9.60;67.70;;;;;;6215818;28;20282;-79
2023/10/17 08:48:43;;;;;;;5.63;5.10;;;9.60;67.70;;;;;;6240525;28;20323;-80
2023/10/17 08:51:49;;;;;;;4.27;4.07;;;9.60;68.10;;;;;;6244238;28;20287;-79
2023/10/17 08:54:52;;;;;;;4.80;4.40;;;9.70;68.40;;;;;;6241368;28;20246;-82
2023/10/17 08:57:55;;;;;;;5.10;4.80;;;10.00;68.40;;;;;;6237842;28;20262;-79
2023/10/17 09:01:07;;;;;;;6.00;5.43;;;10.30;67.80;;;;;;6254131;28;20243;-81
2023/10/17 09:04:13;;;;;;;7.10;5.70;;;10.60;67.10;;;;;;6239429;28;20239;-80
2023/10/17 09:07:31;;;;;;;4.70;4.50;;;10.70;66.60;;;;;;6231425;28;20231;-81
2023/10/17 09:10:37;;;;;;;3.40;3.20;;;10.90;65.50;;;;;;6245785;28;20434;-81
2023/10/17 09:14:14;;;;;;;2.43;2.33;;;10.90;61.70;;;;;;6241975;28;20246;-79
2023/10/17 09:17:28;;;;;;;2.90;2.70;;;11.00;58.20;;;;;;6234065;28;20234;-80
2023/10/17 09:20:35;;;;;;;2.60;2.40;;;10.80;56.70;;;;;;6239890;28;20264;-81
2023/10/17 09:23:41;;;;;;;2.40;2.30;;;10.90;56.80;;;;;;6241062;28;20242;-79
2023/10/17 09:26:46;;;;;;;3.80;3.70;;;11.00;55.30;;;;;;6244687;28;20238;-81
2023/10/17 09:29:51;;;;;;;2.10;2.10;;;11.00;53.70;;;;;;6237330;28;20781;-81
2023/10/17 09:32:55;;;;;;;2.40;2.20;;;11.10;54.50;;;;;;6238922;28;20239;-79
2023/10/17 09:36:00;;;;;;;2.40;2.30;;;11.20;53.00;;;;;;6214707;28;20232;-78
2023/10/17 09:39:05;;;;;;;2.40;2.30;;;11.20;54.20;;;;;;6244286;28;20305;-83
2023/10/17 09:42:08;;;;;;;2.43;2.33;;;11.40;54.40;;;;;;6250543;28;20226;-80
2023/10/17 09:45:13;;;;;;;5.07;4.63;;;11.60;52.90;;;;;;6238179;28;20242;-78
2023/10/17 09:48:36;;;;;;;2.40;2.40;;;11.50;52.30;;;;;;6248455;28;20238;-80
2023/10/17 09:51:41;;;;;;;2.00;2.00;;;11.50;52.30;;;;;;6253052;28;20227;-80
2023/10/17 09:54:51;;;;;;;2.23;2.13;;;11.90;51.40;;;;;;6244537;28;20247;-80
2023/10/17 09:58:02;;;;;;;2.43;2.33;;;12.30;51.70;;;;;;6248040;28;20368;-82
2023/10/17 10:01:13;;;;;;;3.00;2.77;;;12.60;51.20;;;;;;6250365;28;20257;-80
2023/10/17 10:04:18;;;;;;;2.70;2.60;;;12.80;51.40;;;;;;6252600;28;20768;-83
2023/10/17 10:07:23;;;;;;;2.63;2.53;;;12.70;51.90;;;;;;6241380;28;20257;-81
2023/10/17 10:10:51;;;;;;;2.60;2.60;;;12.50;50.40;;;;;;6247004;28;20246;-83
2023/10/17 10:14:12;;;;;;;2.57;2.47;;;12.20;50.80;;;;;;6246009;28;20230;-80
2023/10/17 10:17:15;;;;;;;2.70;2.60;;;11.90;50.20;;;;;;6236372;28;20267;-81
2023/10/17 10:20:19;;;;;;;2.60;2.50;;;11.90;51.30;;;;;;6246898;28;20234;-80
2023/10/17 10:23:33;;;;;;;2.90;2.70;;;11.90;51.30;;;;;;6248752;28;20261;-82
2023/10/17 10:27:20;;;;;;;3.53;2.87;;;11.70;52.50;;;;;;6244696;28;20254;-81
2023/10/17 10:30:43;;;;;;;2.60;2.50;;;11.70;53.00;;;;;;6239762;28;20231;-81
2023/10/17 10:33:49;;;;;;;2.60;2.50;;;11.70;54.10;;;;;;6236395;28;20235;-82
2023/10/17 10:36:54;;;;;;;2.93;2.60;;;11.70;51.70;;;;;;6244158;28;20249;-80
2023/10/17 10:40:17;;;;;;;2.50;2.20;;;11.50;52.70;;;;;;6240863;28;20286;-81
2023/10/17 10:43:25;;;;;;;2.40;2.20;;;11.50;53.10;;;;;;6237229;28;20238;-80
2023/10/17 10:46:29;;;;;;;2.57;2.50;;;11.40;52.80;;;;;;6248828;28;20242;-81
2023/10/17 10:49:33;;;;;;;3.23;2.47;;;11.50;53.30;;;;;;6241717;28;20234;-81
2023/10/17 10:52:36;;;;;;;2.87;2.87;;;11.50;53.10;;;;;;6248286;28;20245;-82
2023/10/17 10:55:39;;;;;;;2.67;2.57;;;11.40;53.90;;;;;;6242432;28;20365;-82
2023/10/17 10:58:51;;;;;;;2.40;2.30;;;11.20;53.50;;;;;;6244768;28;21043;-79
2023/10/17 11:01:54;;;;;;;2.50;2.47;;;11.30;54.30;;;;;;6241272;28;20250;-81
2023/10/17 11:04:58;;;;;;;2.73;2.63;;;11.40;53.40;;;;;;6240965;28;20635;-82
2023/10/17 11:08:02;;;;;;;3.97;3.53;;;11.30;53.60;;;;;;6230987;28;20238;-81
2023/10/17 11:11:09;;;;;;;3.83;3.63;;;11.30;54.60;;;;;;6224629;28;20695;-80
2023/10/17 11:14:17;;;;;;;4.87;4.57;;;11.10;54.50;;;;;;6212165;28;20235;-80
2023/10/17 11:17:26;;;;;;;3.37;3.23;;;11.10;55.90;;;;;;6214825;28;20329;-79
2023/10/17 11:20:29;;;;;;;3.07;2.73;;;11.10;55.80;;;;;;6218404;28;20240;-79
2023/10/17 11:23:35;;;;;;;2.80;2.70;;;11.20;55.40;;;;;;6225883;28;20249;-79
2023/10/17 11:26:40;;;;;;;2.83;2.67;;;11.10;56.90;;;;;;6257491;28;20238;-81
2023/10/17 11:29:45;;;;;;;2.97;2.80;;;11.00;56.60;;;;;;6243990;28;20288;-81
2023/10/17 11:32:49;;;;;;;2.73;2.73;;;11.00;56.50;;;;;;6220778;28;20261;-81
2023/10/17 11:35:53;;;;;;;5.40;2.93;;;11.00;57.30;;;;;;6230570;28;20624;-81
2023/10/17 11:38:57;;;;;;;4.03;3.03;;;11.00;57.50;;;;;;6237128;28;20243;-81
2023/10/17 11:42:01;;;;;;;3.03;2.90;;;11.00;58.00;;;;;;6252947;28;20226;-81
2023/10/17 11:45:19;;;;;;;2.97;2.73;;;11.10;57.70;;;;;;6252830;28;20317;-78
2023/10/17 11:48:40;;;;;;;6.00;2.77;;;11.00;57.60;;;;;;6244898;28;20227;-80
2023/10/17 11:51:48;;;;;;;2.60;2.50;;;10.90;56.40;;;;;;6244668;28;20297;-78
2023/10/17 11:54:56;;;;;;;3.80;2.80;;;10.90;56.40;;;;;;6246937;28;20239;-81
2023/10/17 11:57:59;;;;;;;2.80;2.70;;;11.00;56.90;;;;;;6242287;28;20565;-79
2023/10/17 12:01:04;;;;;;;2.93;2.70;;;11.10;57.10;;;;;;6243292;28;20273;-80
2023/10/17 12:04:08;;;;;;;3.37;2.60;;;11.10;56.40;;;;;;6238625;28;20248;-80
2023/10/17 12:07:12;;;;;;;2.50;2.40;;;11.00;56.90;;;;;;6243793;28;20236;-79
2023/10/17 12:10:15;;;;;;;2.97;2.57;;;11.10;56.80;;;;;;6245567;28;20233;-80
2023/10/17 12:13:19;;;;;;;2.83;2.80;;;11.30;56.20;;;;;;6239322;28;20234;-82
2023/10/17 12:16:24;;;;;;;2.50;2.40;;;11.40;56.70;;;;;;6261861;28;20317;-81
2023/10/17 12:19:29;;;;;;;2.30;2.30;;;11.50;55.80;;;;;;6249462;28;20230;-81
2023/10/17 12:22:32;;;;;;;4.20;3.50;;;11.50;55.90;;;;;;6232697;28;20754;-83
2023/10/17 12:25:36;;;;;;;4.60;2.87;;;11.40;55.90;;;;;;6246179;28;20280;-81
2023/10/17 12:28:41;;;;;;;2.63;2.53;;;11.50;56.50;;;;;;6242662;28;20246;-81
2023/10/17 12:31:45;;;;;;;2.80;2.60;;;11.30;55.10;;;;;;6240786;28;20461;-80
2023/10/17 12:34:49;;;;;;;3.00;2.90;;;11.40;55.20;;;;;;6239908;28;20249;-81
2023/10/17 12:37:57;;;;;;;2.70;2.60;;;11.50;54.90;;;;;;6235278;28;20231;-80
2023/10/17 12:41:02;;;;;;;2.93;2.73;;;11.50;54.80;;;;;;6233754;28;20836;-80
2023/10/17 12:44:05;;;;;;;2.77;2.67;;;11.50;55.10;;;;;;6243321;28;20777;-81
2023/10/17 12:47:10;;;;;;;2.70;2.60;;;11.30;54.00;;;;;;6232541;28;20301;-82
2023/10/17 12:50:18;;;;;;;2.50;2.47;;;11.10;54.50;;;;;;6224804;28;20737;-82
2023/10/17 12:53:21;;;;;;;2.67;2.57;;;11.30;55.20;;;;;;6216400;28;20857;-80
2023/10/17 12:56:25;;;;;;;2.53;2.53;;;11.40;55.30;;;;;;6207023;28;20235;-81
2023/10/17 12:59:28;;;;;;;2.73;2.57;;;11.40;53.50;;;;;;6208597;28;20235;-81
2023/10/17 13:02:33;;;;;;;2.57;2.37;;;11.40;53.80;;;;;;6232600;28;20235;-80
2023/10/17 13:05:37;;;;;;;2.93;2.47;;;11.40;54.10;;;;;;6233763;28;20231;-81
2023/10/17 13:08:41;;;;;;;2.40;2.40;;;11.20;55.00;;;;;;6251893;28;20240;-82
2023/10/17 13:11:44;;;;;;;2.80;2.60;;;11.30;54.80;;;;;;6231139;28;20769;-83
2023/10/17 13:14:47;;;;;;;2.90;2.70;;;11.30;54.10;;;;;;6240497;28;20253;-80
2023/10/17 13:17:55;;;;;;;5.33;4.93;;;11.30;53.90;;;;;;6248236;28;20322;-83
2023/10/17 13:21:02;;;;;;;2.80;2.70;;;11.30;54.10;;;;;;6248684;28;20615;-81
2023/10/17 13:24:14;;;;;;;3.27;2.70;;;11.20;54.60;;;;;;6227642;28;20711;-83
2023/10/17 13:27:18;;;;;;;3.30;2.50;;;11.10;54.40;;;;;;6250705;28;20698;-80
2023/10/17 13:30:25;;;;;;;2.70;2.60;;;11.10;54.50;;;;;;6252400;28;20242;-83
2023/10/17 13:33:30;;;;;;;2.50;2.40;;;11.20;54.70;;;;;;6237920;28;20333;-82
2023/10/17 13:36:33;;;;;;;2.50;2.40;;;11.30;54.50;;;;;;6240168;28;21480;-82
2023/10/17 13:39:37;;;;;;;2.67;2.50;;;11.10;54.50;;;;;;6229186;28;20259;-82
2023/10/17 13:42:40;;;;;;;2.60;2.60;;;11.10;54.20;;;;;;6242592;28;23831;-81
2023/10/17 13:45:43;;;;;;;2.80;2.70;;;11.10;54.80;;;;;;6248178;28;20389;-83
2023/10/17 13:48:49;;;;;;;3.07;2.77;;;11.30;54.70;;;;;;6235268;28;20273;-83
2023/10/17 13:51:54;;;;;;;2.60;2.60;;;11.30;54.10;;;;;;6250745;28;20238;-81
2023/10/17 13:54:59;;;;;;;2.40;2.40;;;11.10;53.50;;;;;;6242640;28;20245;-81
2023/10/17 13:58:02;;;;;;;2.50;2.40;;;11.10;53.50;;;;;;6239289;28;20244;-82
2023/10/17 14:01:27;;;;;;;2.60;2.50;;;11.10;54.20;;;;;;6247498;28;20377;-82
2023/10/17 14:04:30;;;;;;;2.90;2.70;;;11.30;54.30;;;;;;6245110;28;20320;-81
2023/10/17 14:07:33;;;;;;;2.53;2.47;;;11.30;54.40;;;;;;6231307;28;20635;-81
2023/10/17 14:10:37;;;;;;;2.30;2.30;;;11.30;55.00;;;;;;6227743;28;20365;-82
2023/10/17 14:13:41;;;;;;;2.53;2.40;;;11.30;55.60;;;;;;6248994;28;20330;-80
2023/10/17 14:16:44;;;;;;;3.03;2.83;;;11.30;55.40;;;;;;6242126;28;20252;-82
2023/10/17 14:19:51;;;;;;;2.77;2.53;;;11.30;55.30;;;;;;6235614;28;20235;-83
2023/10/17 14:23:11;;;;;;;2.80;2.60;;;11.30;54.20;;;;;;6229300;28;20750;-80
2023/10/17 14:26:15;;;;;;;2.83;2.63;;;11.20;55.00;;;;;;6248937;28;20336;-82
2023/10/17 14:29:17;;;;;;;2.60;2.50;;;11.30;55.60;;;;;;6239486;28;20234;-81
2023/10/17 14:32:23;;;;;;;3.00;2.90;;;11.30;55.90;;;;;;6243764;28;20239;-80
2023/10/17 14:35:33;;;;;;;3.07;2.87;;;11.10;55.00;;;;;;6236901;28;20239;-80
2023/10/17 14:38:39;;;;;;;2.40;2.30;;;11.10;54.50;;;;;;6235437;28;20851;-78
2023/10/17 14:41:44;;;;;;;3.03;2.80;;;11.10;55.00;;;;;;6248394;28;20792;-80
2023/10/17 14:44:49;;;;;;;2.80;2.60;;;11.10;54.60;;;;;;6242571;28;20773;-81
2023/10/17 14:47:54;;;;;;;2.80;2.60;;;11.10;54.60;;;;;;6243869;28;20235;-82
2023/10/17 14:51:02;;;;;;;2.33;2.23;;;11.00;54.00;;;;;;6239944;28;20230;-81
2023/10/17 14:54:08;;;;;;;2.73;2.73;;;11.00;54.30;;;;;;6240948;28;20246;-80
2023/10/17 14:57:13;;;;;;;2.27;2.27;;;11.00;54.60;;;;;;6246519;28;20815;-82
2023/10/17 15:00:17;;;;;;;3.27;2.77;;;11.00;55.00;;;;;;6220996;28;20246;-81
2023/10/17 15:03:20;;;;;;;3.43;2.90;;;11.10;55.40;;;;;;6222675;28;20238;-80
2023/10/17 15:06:25;;;;;;;2.83;2.73;;;11.10;55.00;;;;;;6250151;28;20238;-81
2023/10/17 15:09:28;;;;;;;2.83;2.50;;;11.00;54.70;;;;;;6245906;28;20245;-78
2023/10/17 15:12:32;;;;;;;2.40;2.20;;;10.90;54.80;;;;;;6238263;28;20329;-79
2023/10/17 15:15:36;;;;;;;2.30;2.30;;;10.90;55.40;;;;;;6243101;28;20242;-80
2023/10/17 15:18:39;;;;;;;2.40;2.30;;;10.80;55.80;;;;;;6236613;28;20230;-81
2023/10/17 15:21:45;;;;;;;2.40;2.40;;;10.70;55.90;;;;;;6241786;28;20314;-80
2023/10/17 15:24:50;;;;;;;2.33;2.20;;;10.60;56.10;;;;;;6238636;28;20234;-81
2023/10/17 15:27:54;;;;;;;2.20;2.20;;;10.50;56.00;;;;;;6237052;28;20247;-83
2023/10/17 15:31:05;;;;;;;2.20;2.20;;;10.30;56.40;;;;;;6236736;28;20278;-81
2023/10/17 15:34:08;;;;;;;2.40;2.40;;;10.20;57.00;;;;;;6220599;28;20254;-78
2023/10/17 15:37:12;;;;;;;2.17;2.17;;;10.10;58.10;;;;;;6232517;28;20242;-78
2023/10/17 15:40:21;;;;;;;2.50;2.40;;;10.00;58.90;;;;;;6226855;28;20339;-80
2023/10/17 15:43:24;;;;;;;2.97;2.43;;;9.80;59.50;;;;;;6224800;28;20250;-80
2023/10/17 15:46:28;;;;;;;2.33;2.33;;;9.70;60.10;;;;;;6235057;28;20730;-81
2023/10/17 15:49:32;;;;;;;2.30;2.30;;;9.60;60.70;;;;;;6238734;28;20245;-80
2023/10/17 15:52:36;;;;;;;3.00;2.67;;;9.40;61.10;;;;;;6240217;28;20842;-79
2023/10/17 15:55:40;;;;;;;2.30;2.30;;;9.40;61.30;;;;;;6239441;28;20347;-81
2023/10/17 15:58:44;;;;;;;2.30;2.30;;;9.20;61.90;;;;;;6237081;28;20231;-81
2023/10/17 16:01:47;;;;;;;2.27;2.27;;;9.20;62.30;;;;;;6243269;28;20721;-83
2023/10/17 16:04:51;;;;;;;2.50;2.50;;;9.00;62.70;;;;;;6242873;28;20243;-82
2023/10/17 16:07:55;;;;;;;2.63;2.50;;;9.00;63.30;;;;;;6244656;28;20238;-79
2023/10/17 16:10:58;;;;;;;3.07;2.87;;;8.90;63.70;;;;;;6238781;28;20243;-81
2023/10/17 16:14:03;;;;;;;2.60;2.60;;;8.80;64.10;;;;;;6238101;28;20277;-79
2023/10/17 16:17:07;;;;;;;2.37;2.37;;;8.80;64.30;;;;;;6235213;28;20239;-80
2023/10/17 16:20:11;;;;;;;2.67;2.67;;;8.60;64.60;;;;;;6243659;28;20788;-81
2023/10/17 16:23:17;;;;;;;2.80;2.80;;;8.60;64.80;;;;;;6243959;28;20901;-78
2023/10/17 16:26:20;;;;;;;2.70;2.70;;;8.50;65.10;;;;;;6248030;28;20258;-82
2023/10/17 16:29:23;;;;;;;2.80;2.80;;;8.40;65.30;;;;;;6242281;28;20240;-78
2023/10/17 16:32:27;;;;;;;2.97;2.87;;;8.30;65.50;;;;;;6240982;28;20284;-81
2023/10/17 16:35:31;;;;;;;3.00;2.90;;;8.20;65.70;;;;;;6244444;28;20245;-80
2023/10/17 16:38:38;;;;;;;3.03;2.90;;;8.10;66.00;;;;;;6235858;28;20321;-80
2023/10/17 16:41:42;;;;;;;3.20;3.10;;;8.00;66.20;;;;;;6230353;28;20725;-82
2023/10/17 16:44:45;;;;;;;2.97;2.97;;;8.00;66.50;;;;;;6232309;28;20270;-81
2023/10/17 16:47:50;;;;;;;3.27;3.17;;;7.90;66.70;;;;;;6248742;28;20699;-80
2023/10/17 16:50:54;;;;;;;3.20;3.10;;;7.80;66.80;;;;;;6239932;28;20239;-80
2023/10/17 16:53:59;;;;;;;3.47;3.20;;;7.80;67.10;;;;;;6245398;28;20384;-80
2023/10/17 16:57:02;;;;;;;3.50;3.40;;;7.60;67.30;;;;;;6224477;28;20239;-82
2023/10/17 17:00:12;;;;;;;3.53;3.43;;;7.60;67.60;;;;;;6238999;28;20249;-83
2023/10/17 17:03:19;;;;;;;4.10;3.90;;;7.50;67.90;;;;;;6244588;28;20238;-80
2023/10/17 17:06:23;;;;;;;4.03;3.73;;;7.50;68.10;;;;;;6260471;28;20239;-81
2023/10/17 17:09:28;;;;;;;4.23;3.87;;;7.40;68.30;;;;;;6250168;28;20238;-82
2023/10/17 17:12:31;;;;;;;4.40;4.10;;;7.30;68.50;;;;;;6243665;28;20763;-78
2023/10/17 17:15:34;;;;;;;4.40;4.20;;;7.20;68.50;;;;;;6243127;28;20258;-79
2023/10/17 17:18:37;;;;;;;4.20;3.90;;;7.20;68.70;;;;;;6243413;28;20308;-80
2023/10/17 17:21:51;;;;;;;4.97;4.67;;;7.20;69.00;;;;;;6245515;28;20322;-79
2023/10/17 17:25:00;;;;;;;4.80;4.60;;;7.10;69.10;;;;;;6239735;28;20247;-81
2023/10/17 17:28:04;;;;;;;4.83;4.57;;;7.00;69.30;;;;;;6240726;28;20223;-82
2023/10/17 17:31:07;;;;;;;5.07;4.77;;;7.00;69.50;;;;;;6244023;28;20722;-80
2023/10/17 17:34:11;;;;;;;4.80;4.57;;;6.90;69.60;;;;;;6232470;28;20230;-78
2023/10/17 17:37:14;;;;;;;4.87;4.73;;;6.90;69.80;;;;;;6229333;28;20318;-79
2023/10/17 17:40:19;;;;;;;5.20;5.00;;;6.80;70.00;;;;;;6244038;28;20234;-81